createdAt,value
2018-08-20T00:01:29.272Z,60.21
2018-08-20T00:04:01.252Z,59.73
2018-08-20T00:07:01.557Z,59.35
2018-08-20T00:09:36.598Z,59.90
2018-08-20T00:12:07.206Z,59.48
2018-08-20T00:14:35.842Z,59.07
2018-08-20T00:17:04.463Z,59.59
2018-08-20T00:19:33.041Z,59.58
2018-08-20T00:22:01.572Z,60.57
2018-08-20T00:24:30.170Z,60.47
2018-08-20T00:27:00.153Z,59.55
2018-08-20T00:29:28.945Z,59.93
2018-08-20T00:31:57.504Z,60.03
2018-08-20T00:34:26.089Z,60.16
2018-08-20T00:36:54.610Z,60.74
2018-08-20T00:39:23.185Z,60.90
2018-08-20T00:41:51.708Z,60.89
2018-08-20T00:44:20.265Z,61.07
2018-08-20T00:46:48.831Z,60.44
2018-08-20T00:49:17.501Z,61.20
2018-08-20T00:51:46.618Z,60.88
2018-08-20T00:54:15.168Z,60.23
2018-08-20T00:56:43.725Z,60.29
2018-08-20T00:59:12.672Z,61.10
2018-08-20T01:01:41.234Z,61.08
2018-08-20T01:04:09.820Z,60.98
2018-08-20T01:06:38.386Z,60.91
2018-08-20T01:09:08.031Z,61.25
2018-08-20T01:11:37.102Z,62.08
2018-08-20T01:14:05.731Z,61.72
2018-08-20T01:16:39.420Z,61.90
2018-08-20T01:19:07.962Z,61.67
2018-08-20T01:21:36.479Z,61.70
2018-08-20T01:24:05.058Z,61.69
2018-08-20T01:26:33.614Z,61.65
2018-08-20T01:29:02.180Z,61.93
2018-08-20T01:31:30.694Z,62.10
2018-08-20T01:33:59.243Z,61.66
2018-08-20T01:36:27.771Z,61.98
2018-08-20T01:38:56.258Z,61.87
2018-08-20T01:41:24.829Z,62.18
2018-08-20T01:43:53.400Z,62.56
2018-08-20T01:46:21.940Z,61.98
2018-08-20T01:48:50.511Z,62.35
2018-08-20T01:51:19.142Z,62.39
2018-08-20T01:53:47.677Z,61.80
2018-08-20T01:56:16.247Z,62.03
2018-08-20T01:58:44.799Z,61.37
2018-08-20T02:01:13.570Z,62.07
2018-08-20T02:03:42.188Z,62.63
2018-08-20T02:06:10.717Z,62.38
2018-08-20T02:08:39.342Z,63.07
2018-08-20T02:11:07.930Z,62.41
2018-08-20T02:13:36.509Z,62.88
2018-08-20T02:16:05.129Z,62.25
2018-08-20T02:18:33.743Z,62.63
2018-08-20T02:22:26.712Z,61.80
2018-08-20T02:24:55.476Z,62.79
2018-08-20T02:27:24.372Z,63.46
2018-08-20T02:29:52.953Z,64.52
2018-08-20T02:32:21.538Z,65.31
2018-08-20T02:34:50.286Z,66.00
2018-08-20T02:37:18.799Z,67.04
2018-08-20T02:39:47.409Z,67.13
2018-08-20T02:42:15.977Z,67.67
2018-08-20T02:44:44.538Z,67.88
2018-08-20T02:47:13.082Z,67.70
2018-08-20T02:49:41.651Z,67.98
2018-08-20T02:52:10.520Z,66.78
2018-08-20T02:54:39.085Z,66.91
2018-08-20T02:57:07.600Z,65.66
2018-08-20T02:59:36.201Z,64.86
2018-08-20T03:02:04.846Z,64.47
2018-08-20T03:04:33.438Z,64.38
2018-08-20T03:07:02.278Z,63.82
2018-08-20T03:09:30.874Z,64.03
2018-08-20T03:11:59.426Z,64.23
2018-08-20T03:14:27.989Z,64.34
2018-08-20T03:16:56.546Z,64.26
2018-08-20T03:19:25.074Z,64.47
2018-08-20T03:21:53.582Z,64.89
2018-08-20T03:24:22.168Z,65.93
2018-08-20T03:26:50.907Z,66.02
2018-08-20T03:29:19.470Z,65.36
2018-08-20T03:31:48.022Z,65.85
2018-08-20T03:34:16.558Z,65.55
2018-08-20T03:36:45.126Z,65.12
2018-08-20T03:39:13.675Z,65.23
2018-08-20T03:41:42.206Z,64.57
2018-08-20T03:44:10.722Z,64.88
2018-08-20T03:46:39.284Z,64.38
2018-08-20T03:49:07.970Z,64.84
2018-08-20T03:51:36.546Z,65.92
2018-08-20T03:54:05.290Z,66.19
2018-08-20T03:56:33.882Z,66.78
2018-08-20T03:59:02.418Z,66.35
2018-08-20T04:01:30.949Z,66.81
2018-08-20T04:03:59.495Z,66.46
2018-08-20T04:06:28.101Z,66.38
2018-08-20T04:08:56.587Z,66.23
2018-08-20T04:11:25.134Z,66.39
2018-08-20T04:13:53.653Z,66.77
2018-08-20T04:16:22.187Z,67.24
2018-08-20T04:18:54.858Z,67.27
2018-08-20T04:21:23.419Z,67.50
2018-08-20T04:23:51.963Z,67.52
2018-08-20T04:26:20.507Z,67.83
2018-08-20T04:28:49.086Z,68.18
2018-08-20T04:31:17.626Z,67.89
2018-08-20T04:33:46.155Z,67.53
2018-08-20T04:36:14.653Z,67.90
2018-08-20T04:38:43.408Z,67.29
2018-08-20T04:41:12.017Z,66.67
2018-08-20T04:43:40.540Z,66.50
2018-08-20T04:46:09.145Z,66.69
2018-08-20T04:48:37.641Z,66.12
2018-08-20T04:51:06.388Z,66.25
2018-08-20T04:53:34.763Z,66.09
2018-08-20T04:56:03.338Z,65.22
2018-08-20T04:58:31.878Z,65.56
2018-08-20T05:01:00.441Z,66.36
2018-08-20T05:03:29.356Z,66.31
2018-08-20T05:05:57.893Z,66.19
2018-08-20T05:08:26.394Z,65.68
2018-08-20T05:10:54.955Z,65.70
2018-08-20T05:13:23.499Z,65.81
2018-08-20T05:15:52.212Z,65.25
2018-08-20T05:18:20.684Z,64.47
2018-08-20T05:20:49.225Z,63.70
2018-08-20T05:23:17.792Z,62.32
2018-08-20T05:25:46.321Z,62.80
2018-08-20T05:28:14.802Z,62.08
2018-08-20T05:30:43.361Z,60.18
2018-08-20T05:33:11.902Z,59.00
2018-08-20T05:35:40.427Z,59.09
2018-08-20T05:38:09.050Z,58.55
2018-08-20T05:40:37.529Z,58.26
2018-08-20T05:43:06.417Z,57.65
2018-08-20T05:45:34.943Z,57.33
2018-08-20T05:48:03.522Z,56.86
2018-08-20T05:50:32.114Z,56.57
2018-08-20T05:53:00.694Z,54.82
2018-08-20T05:55:29.229Z,55.55
2018-08-20T05:57:57.862Z,55.22
2018-08-20T06:00:26.437Z,54.53
2018-08-20T06:02:55.009Z,53.65
2018-08-20T06:05:23.561Z,50.98
2018-08-20T06:07:52.112Z,51.63
2018-08-20T06:10:20.643Z,50.94
2018-08-20T06:12:49.244Z,51.21
2018-08-20T06:15:17.838Z,51.31
2018-08-20T06:17:47.007Z,51.56
2018-08-20T06:20:17.225Z,52.75
2018-08-20T06:22:46.143Z,52.20
2018-08-20T06:25:15.097Z,51.95
2018-08-20T06:27:44.030Z,51.60
2018-08-20T06:30:16.716Z,51.40
2018-08-20T06:32:45.706Z,51.26
2018-08-20T06:35:14.309Z,51.58
2018-08-20T06:37:43.504Z,51.30
2018-08-20T06:40:13.819Z,51.77
2018-08-20T06:42:42.718Z,51.16
2018-08-20T06:45:14.355Z,51.03
2018-08-20T06:47:43.648Z,50.16
2018-08-20T06:50:14.298Z,48.35
2018-08-20T06:52:43.881Z,47.27
2018-08-20T06:55:13.285Z,45.44
2018-08-20T06:57:44.142Z,46.41
2018-08-20T07:00:12.834Z,46.86
2018-08-20T07:02:41.544Z,46.76
2018-08-20T07:05:10.454Z,46.86
2018-08-20T07:07:40.107Z,46.57
2018-08-20T07:10:11.330Z,44.90
2018-08-20T07:12:39.926Z,43.40
2018-08-20T07:15:09.810Z,41.75
2018-08-20T07:17:41.523Z,40.30
2018-08-20T07:20:11.755Z,37.80
2018-08-20T07:22:40.377Z,35.98
2018-08-20T07:25:09.551Z,33.98
2018-08-20T07:27:38.567Z,31.85
2018-08-20T07:30:09.923Z,27.39
2018-08-20T07:32:38.528Z,25.18
2018-08-20T07:35:07.369Z,23.26
2018-08-20T07:37:35.942Z,23.15
2018-08-20T07:40:05.921Z,23.79
2018-08-20T07:42:34.638Z,21.96
2018-08-20T07:45:03.144Z,20.99
2018-08-20T07:47:31.941Z,23.12
2018-08-20T07:50:00.599Z,22.35
2018-08-20T07:52:30.181Z,21.37
2018-08-20T07:54:59.591Z,20.28
2018-08-20T07:57:28.218Z,18.25
2018-08-20T07:59:56.763Z,18.73
2018-08-20T08:02:25.383Z,19.53
2018-08-20T08:04:53.928Z,19.85
2018-08-20T08:07:22.984Z,21.78
2018-08-20T08:09:52.432Z,21.05
2018-08-20T08:12:20.926Z,19.79
2018-08-20T08:14:49.583Z,18.51
2018-08-20T08:17:18.139Z,18.10
2018-08-20T08:19:47.956Z,18.18
2018-08-20T08:22:16.719Z,19.77
2018-08-20T08:24:45.467Z,20.74
2018-08-20T08:27:14.023Z,20.55
2018-08-20T08:29:42.790Z,18.45
2018-08-20T08:32:11.588Z,18.61
2018-08-20T08:34:40.280Z,17.84
2018-08-20T08:37:09.034Z,17.32
2018-08-20T08:39:37.723Z,16.46
2018-08-20T08:42:07.160Z,16.47
2018-08-20T08:44:36.232Z,17.42
2018-08-20T08:47:05.165Z,16.99
2018-08-20T08:49:34.699Z,16.81
2018-08-20T08:52:03.305Z,15.99
2018-08-20T08:54:31.887Z,17.02
2018-08-20T08:57:00.482Z,16.37
2018-08-20T08:59:29.261Z,16.89
2018-08-20T09:01:57.978Z,16.78
2018-08-20T09:04:26.543Z,16.00
2018-08-20T09:06:55.232Z,16.20
2018-08-20T09:09:23.832Z,15.40
2018-08-20T09:11:52.441Z,15.56
2018-08-20T09:14:21.011Z,16.01
2018-08-20T09:16:49.573Z,16.66
2018-08-20T09:19:18.063Z,17.24
2018-08-20T09:21:46.606Z,17.14
2018-08-20T09:24:15.136Z,16.06
2018-08-20T09:26:43.658Z,15.15
2018-08-20T09:29:12.235Z,15.21
2018-08-20T09:31:40.708Z,14.73
2018-08-20T09:34:09.250Z,14.34
2018-08-20T09:36:37.738Z,13.01
2018-08-20T09:39:06.923Z,14.40
2018-08-20T09:41:35.399Z,13.75
2018-08-20T09:44:03.976Z,12.43
2018-08-20T09:46:32.707Z,12.16
2018-08-20T09:49:01.219Z,12.10
2018-08-20T09:51:29.904Z,12.30
2018-08-20T09:53:58.424Z,12.25
2018-08-20T09:56:26.902Z,13.16
2018-08-20T09:58:55.438Z,13.02
2018-08-20T10:01:23.910Z,13.43
2018-08-20T10:03:52.402Z,13.14
2018-08-20T10:06:20.897Z,13.09
2018-08-20T10:08:50.288Z,13.96
2018-08-20T10:11:18.802Z,13.67
2018-08-20T10:13:47.309Z,13.64
2018-08-20T10:16:15.759Z,15.33
2018-08-20T10:18:44.255Z,16.40
2018-08-20T10:21:12.766Z,16.24
2018-08-20T10:23:41.244Z,16.94
2018-08-20T10:26:09.734Z,15.76
2018-08-20T10:28:38.233Z,15.20
2018-08-20T10:31:06.759Z,15.07
2018-08-20T10:33:35.235Z,14.61
2018-08-20T10:36:03.751Z,14.65
2018-08-20T10:38:32.254Z,13.86
2018-08-20T10:41:00.778Z,15.72
2018-08-20T10:43:29.233Z,15.02
2018-08-20T10:46:03.095Z,14.85
2018-08-20T10:48:31.550Z,14.64
2018-08-20T10:51:00.051Z,14.46
2018-08-20T10:53:28.538Z,14.57
2018-08-20T10:55:57.054Z,14.68
2018-08-20T10:58:25.545Z,14.53
2018-08-20T11:00:54.071Z,13.94
2018-08-20T11:03:22.583Z,13.45
2018-08-20T11:08:44.363Z,13.79
2018-08-20T11:11:12.901Z,14.80
2018-08-20T11:13:41.407Z,14.14
2018-08-20T11:16:10.232Z,13.49
2018-08-20T11:18:38.739Z,14.08
2018-08-20T11:21:07.367Z,14.57
2018-08-20T11:23:35.898Z,14.27
2018-08-20T11:26:04.495Z,14.45
2018-08-20T11:28:33.026Z,13.50
2018-08-20T11:31:01.648Z,13.51
2018-08-20T11:33:30.395Z,13.85
2018-08-20T11:35:59.014Z,15.36
2018-08-20T11:38:27.775Z,15.84
2018-08-20T11:40:57.224Z,16.66
2018-08-20T11:43:25.782Z,15.42
2018-08-20T11:45:54.357Z,16.36
2018-08-20T11:48:22.857Z,15.80
2018-08-20T11:50:51.402Z,16.20
2018-08-20T11:53:20.004Z,16.84
2018-08-20T11:55:49.201Z,16.83
2018-08-20T11:58:17.722Z,17.60
2018-08-20T12:00:46.226Z,17.37
2018-08-20T12:03:14.747Z,17.01
2018-08-20T12:05:43.275Z,19.45
2018-08-20T12:08:12.118Z,20.49
2018-08-20T12:10:40.796Z,20.38
2018-08-20T12:13:09.275Z,20.54
2018-08-20T12:15:37.798Z,18.68
2018-08-20T12:18:06.358Z,18.81
2018-08-20T12:20:34.869Z,17.60
2018-08-20T12:23:03.384Z,17.30
2018-08-20T12:25:31.908Z,18.32
2018-08-20T12:28:00.406Z,17.60
2018-08-20T12:30:28.909Z,18.33
2018-08-20T12:32:57.430Z,17.31
2018-08-20T12:35:25.989Z,17.45
2018-08-20T12:37:54.532Z,17.20
2018-08-20T12:40:23.160Z,17.14
2018-08-20T12:42:51.633Z,16.64
2018-08-20T12:45:20.148Z,16.73
2018-08-20T12:47:48.678Z,16.77
2018-08-20T12:50:17.169Z,17.38
2018-08-20T12:52:45.747Z,17.18
2018-08-20T12:55:14.220Z,18.25
2018-08-20T12:57:42.757Z,17.48
2018-08-20T13:00:11.246Z,16.84
2018-08-20T13:02:39.810Z,16.07
2018-08-20T13:05:08.333Z,16.55
2018-08-20T13:07:36.879Z,17.03
2018-08-20T13:10:05.944Z,16.52
2018-08-20T13:12:34.489Z,17.40
2018-08-20T13:15:03.004Z,17.77
2018-08-20T13:17:31.895Z,17.21
2018-08-20T13:20:00.447Z,16.98
2018-08-20T13:22:28.958Z,17.01
2018-08-20T13:24:57.422Z,17.08
2018-08-20T13:27:26.029Z,16.04
2018-08-20T13:29:54.545Z,15.12
2018-08-20T13:32:23.103Z,14.68
2018-08-20T13:34:51.620Z,15.34
2018-08-20T13:37:20.292Z,15.87
2018-08-20T13:39:48.745Z,16.49
2018-08-20T13:42:17.345Z,14.50
2018-08-20T13:44:45.877Z,13.13
2018-08-20T13:47:14.693Z,12.45
2018-08-20T13:49:43.792Z,12.53
2018-08-20T13:52:12.337Z,13.85
2018-08-20T13:54:40.889Z,14.58
2018-08-20T13:57:09.424Z,16.12
2018-08-20T13:59:37.983Z,14.31
2018-08-20T14:02:06.689Z,15.18
2018-08-20T14:04:35.253Z,16.11
2018-08-20T14:07:04.178Z,15.40
2018-08-20T14:09:33.386Z,14.53
2018-08-20T14:12:02.357Z,15.10
2018-08-20T14:14:30.932Z,15.15
2018-08-20T14:16:59.894Z,14.27
2018-08-20T14:19:29.407Z,13.83
2018-08-20T14:22:00.324Z,13.63
2018-08-20T14:24:28.991Z,13.98
2018-08-20T14:26:59.767Z,14.09
2018-08-20T14:29:28.295Z,13.69
2018-08-20T14:31:56.922Z,13.38
2018-08-20T14:34:25.453Z,14.60
2018-08-20T14:36:54.152Z,15.12
2018-08-20T14:39:22.807Z,15.29
2018-08-20T14:41:51.381Z,15.40
2018-08-20T14:44:19.934Z,16.47
2018-08-20T14:46:48.503Z,16.64
2018-08-20T14:49:17.078Z,16.37
2018-08-20T14:51:45.617Z,15.55
2018-08-20T14:54:14.231Z,15.38
2018-08-20T14:56:42.814Z,14.98
2018-08-20T14:59:11.354Z,14.51
2018-08-20T15:01:39.890Z,14.89
2018-08-20T15:04:08.573Z,15.46
2018-08-20T15:06:51.158Z,15.06
2018-08-20T15:09:19.871Z,15.14
2018-08-20T15:13:17.425Z,15.28
2018-08-20T15:15:47.714Z,15.88
2018-08-20T15:18:16.140Z,15.71
2018-08-20T15:20:47.509Z,16.05
2018-08-20T15:23:18.342Z,15.77
2018-08-20T15:25:50.838Z,15.03
2018-08-20T15:28:19.419Z,15.34
2018-08-20T15:30:47.962Z,15.24
2018-08-20T15:33:16.486Z,15.24
2018-08-20T15:35:44.990Z,14.89
2018-08-20T15:38:13.519Z,14.18
2018-08-20T15:40:42.017Z,14.14
2018-08-20T15:43:10.582Z,14.48
2018-08-20T15:45:39.561Z,14.74
2018-08-20T15:48:08.230Z,14.37
2018-08-20T15:50:36.726Z,14.94
2018-08-20T15:53:05.323Z,15.69
2018-08-20T15:56:58.164Z,15.81
2018-08-20T15:59:26.677Z,15.00
2018-08-20T16:01:55.166Z,16.23
2018-08-20T16:04:23.698Z,15.62
2018-08-20T16:06:52.184Z,15.92
2018-08-20T16:09:20.712Z,15.54
2018-08-20T16:11:49.209Z,15.74
2018-08-20T16:14:17.745Z,15.92
2018-08-20T16:16:46.226Z,15.55
2018-08-20T16:19:14.751Z,15.71
2018-08-20T16:21:43.269Z,15.31
2018-08-20T16:24:11.803Z,15.65
2018-08-20T16:26:40.379Z,15.98
2018-08-20T16:29:08.903Z,15.30
2018-08-20T16:31:37.462Z,15.85
2018-08-20T16:34:06.073Z,15.70
2018-08-20T16:36:34.669Z,16.10
2018-08-20T16:39:03.450Z,15.96
2018-08-20T16:41:31.931Z,17.20
2018-08-20T16:44:00.515Z,16.37
2018-08-20T16:46:29.055Z,16.49
2018-08-20T16:48:57.638Z,16.38
2018-08-20T16:51:26.170Z,16.36
2018-08-20T16:53:54.705Z,17.17
2018-08-20T16:56:23.242Z,18.26
2018-08-20T16:58:51.790Z,18.99
2018-08-20T17:01:20.448Z,18.85
2018-08-20T17:03:48.989Z,19.31
2018-08-20T17:06:17.500Z,19.48
2018-08-20T17:08:46.126Z,19.64
2018-08-20T17:11:15.020Z,19.52
2018-08-20T17:13:43.562Z,20.37
2018-08-20T17:16:14.338Z,19.87
2018-08-20T17:18:43.026Z,20.30
2018-08-20T17:21:11.599Z,20.28
2018-08-20T17:23:40.103Z,20.76
2018-08-20T17:26:08.855Z,21.08
2018-08-20T17:28:37.373Z,21.24
2018-08-20T17:31:08.248Z,22.50
2018-08-20T17:33:36.848Z,22.29
2018-08-20T17:36:07.744Z,22.26
2018-08-20T17:38:36.246Z,22.96
2018-08-20T17:41:05.030Z,23.17
2018-08-20T17:43:33.535Z,23.28
2018-08-20T17:46:02.079Z,23.66
2018-08-20T17:48:31.656Z,24.06
2018-08-20T17:51:00.594Z,25.37
2018-08-20T17:53:40.600Z,25.64
2018-08-20T17:56:09.145Z,25.61
2018-08-20T17:58:37.640Z,26.81
2018-08-20T18:01:06.274Z,27.08
2018-08-20T18:03:35.975Z,27.26
2018-08-20T18:06:06.751Z,27.24
2018-08-20T18:08:35.593Z,27.67
2018-08-20T18:11:04.711Z,27.88
2018-08-20T18:13:47.521Z,28.92
2018-08-20T18:16:17.146Z,29.74
2018-08-20T18:18:47.866Z,30.03
2018-08-20T18:21:16.461Z,30.11
2018-08-20T18:23:45.017Z,30.44
2018-08-20T18:26:13.579Z,30.60
2018-08-20T18:28:47.310Z,30.98
2018-08-20T18:31:23.040Z,32.44
2018-08-20T18:33:51.594Z,32.23
2018-08-20T18:36:26.600Z,32.96
2018-08-20T18:38:56.606Z,33.34
2018-08-20T18:42:05.669Z,33.06
2018-08-20T18:44:34.178Z,33.96
2018-08-20T18:47:02.844Z,34.16
2018-08-20T18:49:31.426Z,34.33
2018-08-20T18:52:06.609Z,33.82
2018-08-20T18:54:39.349Z,34.25
2018-08-20T18:57:07.924Z,34.29
2018-08-20T18:59:37.560Z,34.40
2018-08-20T19:02:07.251Z,34.67
2018-08-20T19:04:41.732Z,34.97
2018-08-20T19:07:11.794Z,34.81
2018-08-20T19:09:41.227Z,34.43
2018-08-20T19:12:10.321Z,34.71
2018-08-20T19:14:38.822Z,34.85
2018-08-20T19:17:13.652Z,35.43
2018-08-20T19:19:49.309Z,35.33
2018-08-20T19:22:23.090Z,35.41
2018-08-20T19:24:51.613Z,36.04
2018-08-20T19:27:20.214Z,36.10
2018-08-20T19:29:48.714Z,36.10
2018-08-20T19:32:17.274Z,36.01
2018-08-20T19:34:45.850Z,36.39
2018-08-20T19:37:14.339Z,36.78
2018-08-20T19:39:42.846Z,36.82
2018-08-20T19:42:14.987Z,37.11
2018-08-20T19:44:43.490Z,36.66
2018-08-20T19:47:12.022Z,36.78
2018-08-20T19:49:40.914Z,37.39
2018-08-20T19:52:09.538Z,37.86
2018-08-20T19:54:38.074Z,37.98
2018-08-20T19:57:06.593Z,38.21
2018-08-20T19:59:38.705Z,38.23
2018-08-20T20:02:11.503Z,38.41
2018-08-20T20:04:40.029Z,38.99
2018-08-20T20:07:08.569Z,39.78
2018-08-20T20:09:38.422Z,40.26
2018-08-20T20:12:07.050Z,40.88
2018-08-20T20:14:40.975Z,41.34
2018-08-20T20:17:10.064Z,41.67
2018-08-20T20:19:38.950Z,41.81
2018-08-20T20:22:12.610Z,42.11
2018-08-20T20:24:41.426Z,42.07
2018-08-20T20:27:10.060Z,42.09
2018-08-20T20:29:38.936Z,42.33
2018-08-20T20:32:07.586Z,42.10
2018-08-20T20:34:36.337Z,42.08
2018-08-20T20:37:05.062Z,42.15
2018-08-20T20:39:34.615Z,42.17
2018-08-20T20:42:03.190Z,41.87
2018-08-20T20:44:31.806Z,41.86
2018-08-20T20:47:00.470Z,41.76
2018-08-20T20:49:29.017Z,41.84
2018-08-20T20:51:57.558Z,41.97
2018-08-20T20:54:26.183Z,42.04
2018-08-20T20:56:55.110Z,42.58
2018-08-20T20:59:23.734Z,42.61
2018-08-20T21:01:52.333Z,42.46
2018-08-20T21:04:20.957Z,42.38
2018-08-20T21:06:49.776Z,42.50
2018-08-20T21:09:18.354Z,42.25
2018-08-20T21:11:46.986Z,42.48
2018-08-20T21:14:15.648Z,42.71
2018-08-20T21:16:44.198Z,42.82
2018-08-20T21:19:12.789Z,43.27
2018-08-20T21:21:41.590Z,43.28
2018-08-20T21:24:10.553Z,43.26
2018-08-20T21:26:39.133Z,43.83
2018-08-20T21:29:07.774Z,43.96
2018-08-20T21:31:42.502Z,44.14
2018-08-20T21:34:11.183Z,44.14
2018-08-20T21:36:39.869Z,44.42
2018-08-20T21:39:09.989Z,44.70
2018-08-20T21:41:39.383Z,44.49
2018-08-20T21:44:08.070Z,45.13
2018-08-20T21:46:36.742Z,45.76
2018-08-20T21:49:05.705Z,46.15
2018-08-20T21:51:41.557Z,47.54
2018-08-20T21:54:11.455Z,48.59
2018-08-20T21:56:51.174Z,48.73
2018-08-20T21:59:19.808Z,48.89
2018-08-20T22:01:48.393Z,48.53
2018-08-20T22:04:19.722Z,48.44
2018-08-20T22:06:49.507Z,48.78
2018-08-20T22:09:18.174Z,48.96
2018-08-20T22:11:47.089Z,49.60
2018-08-20T22:14:15.706Z,50.59
2018-08-20T22:16:44.245Z,49.78
2018-08-20T22:19:13.205Z,50.56
2018-08-20T22:21:41.781Z,51.08
2018-08-20T22:24:10.576Z,50.73
2018-08-20T22:26:45.803Z,50.44
2018-08-20T22:29:14.445Z,49.94
2018-08-20T22:31:48.649Z,50.45
2018-08-20T22:34:17.247Z,50.65
2018-08-20T22:36:46.766Z,51.24
2018-08-20T22:39:15.341Z,51.14
2018-08-20T22:41:44.119Z,51.33
2018-08-20T22:44:12.682Z,50.54
2018-08-20T22:46:41.258Z,50.62
2018-08-20T22:49:09.847Z,51.17
2018-08-20T22:51:38.370Z,50.44
2018-08-20T22:54:06.967Z,50.49
2018-08-20T22:56:36.230Z,49.95
2018-08-20T22:59:07.393Z,50.30
2018-08-20T23:01:40.822Z,49.94
2018-08-20T23:04:09.602Z,50.04
2018-08-20T23:06:38.291Z,49.93
2018-08-20T23:09:25.566Z,50.03
2018-08-20T23:11:59.668Z,50.44
2018-08-20T23:14:28.243Z,50.26
2018-08-20T23:16:56.910Z,50.80
2018-08-20T23:19:25.866Z,50.74
2018-08-20T23:21:55.013Z,51.19
2018-08-20T23:24:24.101Z,51.88
2018-08-20T23:26:52.905Z,51.94
2018-08-20T23:29:21.490Z,51.96
2018-08-20T23:31:50.118Z,52.18
2018-08-20T23:34:18.738Z,52.38
2018-08-20T23:36:47.329Z,52.51
2018-08-20T23:39:17.390Z,52.59
2018-08-20T23:41:46.791Z,52.30
2018-08-20T23:44:17.073Z,52.16
2018-08-20T23:46:47.470Z,51.98
2018-08-20T23:49:16.058Z,52.45
2018-08-20T23:51:44.719Z,52.50
2018-08-20T23:54:13.713Z,52.08
2018-08-20T23:56:42.344Z,52.26
2018-08-20T23:59:10.913Z,52.21
